createdAt,value
2022-07-29T00:01:20.812Z,6.20
2022-07-29T00:03:49.154Z,5.68
2022-07-29T00:06:17.359Z,5.18
2022-07-29T00:08:45.350Z,5.72
2022-07-29T00:11:15.026Z,5.40
2022-07-29T00:13:45.375Z,5.60
2022-07-29T00:16:17.401Z,5.70
2022-07-29T00:18:45.415Z,5.65
2022-07-29T00:21:13.457Z,5.85
2022-07-29T00:23:41.485Z,5.85
2022-07-29T00:26:09.603Z,5.85
2022-07-29T00:28:38.911Z,5.60
2022-07-29T00:31:07.558Z,6.28
2022-07-29T00:33:35.572Z,5.32
2022-07-29T00:36:02.715Z,5.53
2022-07-29T00:38:30.715Z,5.15
2022-07-29T00:40:58.787Z,5.63
2022-07-29T00:43:26.785Z,5.88
2022-07-29T00:45:56.270Z,5.95
2022-07-29T00:48:24.262Z,4.65
2022-07-29T00:50:52.543Z,5.28
2022-07-29T00:53:22.207Z,4.78
2022-07-29T00:55:50.384Z,4.90
2022-07-29T00:58:20.468Z,4.68
2022-07-29T01:00:48.709Z,5.28
2022-07-29T01:03:18.242Z,5.40
2022-07-29T01:05:51.134Z,5.00
2022-07-29T01:08:20.714Z,4.82
2022-07-29T01:10:49.827Z,4.78
2022-07-29T01:13:18.819Z,4.63
2022-07-29T01:15:50.171Z,5.00
2022-07-29T01:18:26.104Z,4.80
2022-07-29T01:21:30.260Z,4.32
2022-07-29T01:24:21.593Z,5.18
2022-07-29T01:26:52.809Z,4.45
2022-07-29T01:29:38.805Z,4.50
2022-07-29T01:32:27.343Z,4.13
2022-07-29T01:35:00.543Z,4.00
2022-07-29T01:37:31.655Z,4.60
2022-07-29T01:40:02.142Z,4.22
2022-07-29T01:42:34.249Z,4.18
2022-07-29T01:45:11.357Z,4.25
2022-07-29T01:47:44.021Z,4.68
2022-07-29T01:50:16.696Z,4.45
2022-07-29T01:52:48.735Z,4.25
2022-07-29T01:55:19.828Z,4.28
2022-07-29T01:57:49.780Z,4.07
2022-07-29T02:00:20.316Z,4.20
2022-07-29T02:02:50.457Z,4.05
2022-07-29T02:05:22.356Z,4.65
2022-07-29T02:07:52.405Z,3.85
2022-07-29T02:10:25.666Z,4.00
2022-07-29T02:12:56.088Z,3.88
2022-07-29T02:15:27.642Z,4.20
2022-07-29T02:18:00.373Z,3.75
2022-07-29T02:20:29.901Z,3.25
2022-07-29T02:23:00.694Z,3.63
2022-07-29T02:25:37.013Z,4.93
2022-07-29T02:28:07.883Z,3.88
2022-07-29T02:30:39.220Z,3.88
2022-07-29T02:33:08.567Z,3.75
2022-07-29T02:35:36.756Z,3.88
2022-07-29T02:38:23.693Z,4.13
2022-07-29T02:40:53.953Z,3.90
2022-07-29T02:43:23.204Z,3.72
2022-07-29T02:45:55.165Z,3.58
2022-07-29T02:48:27.724Z,3.72
2022-07-29T02:51:06.679Z,3.95
2022-07-29T02:53:37.347Z,3.85
2022-07-29T02:56:10.356Z,3.83
2022-07-29T02:58:42.550Z,3.97
2022-07-29T03:01:22.795Z,3.65
2022-07-29T03:03:52.805Z,3.25
2022-07-29T03:06:28.737Z,3.47
2022-07-29T03:09:13.003Z,3.55
2022-07-29T03:11:49.552Z,3.55
2022-07-29T03:14:20.533Z,3.83
2022-07-29T03:16:50.754Z,3.30
2022-07-29T03:19:19.437Z,3.40
2022-07-29T03:21:47.530Z,3.47
2022-07-29T03:24:31.884Z,3.50
2022-07-29T03:27:00.649Z,3.45
2022-07-29T03:29:33.781Z,3.40
2022-07-29T03:32:07.900Z,3.25
2022-07-29T03:34:38.294Z,3.40
2022-07-29T03:37:06.905Z,3.50
2022-07-29T03:39:40.884Z,3.15
2022-07-29T03:42:12.620Z,3.40
2022-07-29T03:44:42.402Z,3.63
2022-07-29T03:47:13.108Z,3.53
2022-07-29T03:49:42.947Z,3.30
2022-07-29T03:52:11.628Z,3.50
2022-07-29T03:54:39.936Z,3.45
2022-07-29T03:57:08.886Z,3.30
2022-07-29T03:59:37.666Z,3.08
2022-07-29T04:02:07.275Z,3.30
2022-07-29T04:04:37.736Z,3.50
2022-07-29T04:07:06.228Z,3.00
2022-07-29T04:09:34.620Z,3.55
2022-07-29T04:12:04.293Z,3.33
2022-07-29T04:14:33.732Z,2.75
2022-07-29T04:17:02.408Z,3.25
2022-07-29T04:19:30.542Z,3.33
2022-07-29T04:22:00.535Z,3.30
2022-07-29T04:24:29.784Z,3.13
2022-07-29T04:26:58.017Z,4.35
2022-07-29T04:29:26.203Z,3.38
2022-07-29T04:31:54.194Z,3.30
2022-07-29T04:34:22.274Z,3.08
2022-07-29T04:36:50.509Z,3.10
2022-07-29T04:39:22.949Z,2.85
2022-07-29T04:41:52.465Z,2.55
2022-07-29T04:44:28.457Z,2.80
2022-07-29T04:46:58.284Z,2.90
2022-07-29T04:49:27.073Z,2.67
2022-07-29T04:51:55.674Z,2.63
2022-07-29T04:54:25.656Z,2.50
2022-07-29T04:56:54.544Z,2.40
2022-07-29T04:59:22.582Z,2.60
2022-07-29T05:01:50.831Z,3.00
2022-07-29T05:04:19.498Z,2.92
2022-07-29T05:06:48.146Z,2.95
2022-07-29T05:09:16.226Z,2.85
2022-07-29T05:11:45.749Z,2.63
2022-07-29T05:14:14.212Z,2.63
2022-07-29T05:16:43.023Z,2.85
2022-07-29T05:19:14.413Z,2.60
2022-07-29T05:21:43.454Z,2.35
2022-07-29T05:24:11.604Z,2.35
2022-07-29T05:26:39.833Z,2.20
2022-07-29T05:29:44.753Z,1.92
2022-07-29T05:31:57.316Z,1.90
2022-07-29T05:34:26.178Z,2.30
2022-07-29T05:36:54.394Z,1.85
2022-07-29T05:39:22.512Z,1.92
2022-07-29T05:42:11.796Z,1.80
2022-07-29T05:44:41.783Z,1.63
2022-07-29T05:47:09.880Z,1.88
2022-07-29T05:49:38.111Z,1.80
2022-07-29T05:52:06.990Z,1.70
2022-07-29T05:54:35.021Z,1.60
2022-07-29T05:57:03.164Z,1.70
2022-07-29T05:59:31.361Z,1.48
2022-07-29T06:02:01.049Z,1.63
2022-07-29T06:04:29.311Z,1.45
2022-07-29T06:06:57.419Z,1.40
2022-07-29T06:09:25.435Z,1.50
2022-07-29T06:11:53.675Z,1.50
2022-07-29T06:14:21.771Z,1.50
2022-07-29T06:16:49.889Z,1.48
2022-07-29T06:19:19.408Z,1.50
2022-07-29T06:21:48.989Z,1.10
2022-07-29T06:24:18.268Z,1.40
2022-07-29T06:26:46.879Z,1.63
2022-07-29T06:29:14.878Z,1.30
2022-07-29T06:31:42.984Z,1.30
2022-07-29T06:34:11.088Z,1.13
2022-07-29T06:36:41.126Z,1.20
2022-07-29T06:39:11.722Z,1.23
2022-07-29T06:41:40.540Z,1.20
2022-07-29T06:44:11.419Z,1.35
2022-07-29T06:46:39.522Z,1.80
2022-07-29T06:49:07.819Z,1.15
2022-07-29T06:51:36.275Z,1.23
2022-07-29T06:54:06.651Z,1.77
2022-07-29T06:56:38.327Z,1.35
2022-07-29T06:59:08.465Z,1.30
2022-07-29T07:01:37.918Z,1.40
2022-07-29T07:04:06.150Z,1.55
2022-07-29T07:06:34.655Z,1.17
2022-07-29T07:09:03.162Z,1.30
2022-07-29T07:11:32.645Z,1.20
2022-07-29T07:14:03.926Z,1.58
2022-07-29T07:16:33.101Z,1.25
2022-07-29T07:19:01.766Z,1.70
2022-07-29T07:21:30.495Z,1.45
2022-07-29T07:23:59.416Z,1.20
2022-07-29T07:26:28.112Z,1.45
2022-07-29T07:28:57.504Z,1.30
2022-07-29T07:31:25.688Z,1.00
2022-07-29T07:33:54.510Z,1.30
2022-07-29T07:36:23.032Z,1.08
2022-07-29T07:38:51.279Z,1.20
2022-07-29T07:41:19.479Z,1.20
2022-07-29T07:43:47.497Z,1.63
2022-07-29T07:46:17.544Z,1.50
2022-07-29T07:48:45.963Z,1.50
2022-07-29T07:51:14.279Z,1.20
2022-07-29T07:53:42.644Z,1.38
2022-07-29T07:56:12.475Z,1.40
2022-07-29T07:58:41.166Z,1.42
2022-07-29T08:01:09.459Z,1.30
2022-07-29T08:03:39.915Z,1.00
2022-07-29T08:06:08.548Z,1.40
2022-07-29T08:08:36.650Z,1.05
2022-07-29T08:11:09.132Z,1.30
2022-07-29T08:13:38.863Z,1.40
2022-07-29T08:16:16.296Z,1.30
2022-07-29T08:18:47.468Z,1.50
2022-07-29T08:21:16.350Z,1.40
2022-07-29T08:23:59.608Z,1.00
2022-07-29T08:26:28.975Z,1.40
2022-07-29T08:28:57.040Z,1.15
2022-07-29T08:31:25.311Z,1.30
2022-07-29T08:33:57.278Z,1.30
2022-07-29T08:36:25.925Z,1.25
2022-07-29T08:38:54.036Z,1.30
2022-07-29T08:41:22.372Z,1.20
2022-07-29T08:43:52.050Z,1.30
2022-07-29T08:46:21.226Z,1.45
2022-07-29T08:48:49.856Z,1.10
2022-07-29T08:51:20.628Z,1.20
2022-07-29T08:53:50.939Z,1.10
2022-07-29T08:56:20.548Z,1.30
2022-07-29T08:58:51.809Z,1.17
2022-07-29T09:01:35.605Z,1.30
2022-07-29T09:04:06.548Z,1.02
2022-07-29T09:06:39.412Z,1.30
2022-07-29T09:09:09.478Z,1.20
2022-07-29T09:11:38.319Z,1.15
2022-07-29T09:14:06.768Z,1.20
2022-07-29T09:16:53.267Z,1.25
2022-07-29T09:19:26.887Z,1.20
2022-07-29T09:22:00.435Z,1.40
2022-07-29T09:24:46.152Z,1.25
2022-07-29T09:27:23.150Z,1.52
2022-07-29T09:29:59.683Z,1.30
2022-07-29T09:32:28.383Z,1.40
2022-07-29T09:35:18.929Z,1.17
2022-07-29T09:37:48.848Z,1.15
2022-07-29T09:40:18.926Z,1.15
2022-07-29T09:42:47.823Z,1.20
2022-07-29T09:45:29.308Z,1.10
2022-07-29T09:47:59.961Z,1.00
2022-07-29T09:50:37.946Z,1.30
2022-07-29T09:53:36.438Z,1.10
2022-07-29T09:56:05.790Z,0.90
2022-07-29T09:58:34.657Z,1.08
2022-07-29T10:01:03.576Z,1.10
2022-07-29T10:03:33.034Z,1.10
2022-07-29T10:06:10.055Z,1.10
2022-07-29T10:08:40.001Z,0.80
2022-07-29T10:11:12.892Z,1.13
2022-07-29T10:13:42.230Z,0.95
2022-07-29T10:16:11.022Z,1.08
2022-07-29T10:18:40.990Z,1.00
2022-07-29T10:21:10.582Z,1.17
2022-07-29T10:23:46.187Z,0.90
2022-07-29T10:26:16.606Z,1.00
2022-07-29T10:28:44.697Z,1.02
2022-07-29T10:31:21.335Z,1.27
2022-07-29T10:34:00.574Z,1.20
2022-07-29T10:36:48.988Z,0.95
2022-07-29T10:39:44.357Z,0.80
2022-07-29T10:42:20.357Z,0.90
2022-07-29T10:45:01.575Z,0.98
2022-07-29T10:47:29.975Z,0.88
2022-07-29T10:50:01.211Z,0.70
2022-07-29T10:52:58.583Z,0.90
2022-07-29T10:55:35.883Z,1.10
2022-07-29T10:58:18.983Z,0.95
2022-07-29T11:00:49.508Z,1.10
2022-07-29T11:03:49.309Z,1.02
2022-07-29T11:06:26.802Z,0.90
2022-07-29T11:09:20.290Z,0.85
2022-07-29T11:11:51.683Z,0.90
2022-07-29T11:14:20.335Z,0.90
2022-07-29T11:17:06.122Z,0.95
2022-07-29T11:19:40.328Z,0.82
2022-07-29T11:22:16.553Z,0.90
2022-07-29T11:24:50.060Z,0.80
2022-07-29T11:27:23.126Z,0.90
2022-07-29T11:29:54.141Z,0.80
2022-07-29T11:32:24.144Z,0.90
2022-07-29T11:35:17.139Z,1.00
2022-07-29T11:37:52.224Z,0.88
2022-07-29T11:40:23.614Z,1.08
2022-07-29T11:42:53.517Z,0.85
2022-07-29T11:45:43.613Z,0.90
2022-07-29T11:48:28.483Z,0.90
2022-07-29T11:51:00.666Z,0.63
2022-07-29T11:53:32.493Z,2.10
2022-07-29T11:56:03.593Z,0.90
2022-07-29T11:58:33.663Z,0.90
2022-07-29T12:01:04.711Z,0.93
2022-07-29T12:03:36.175Z,0.77
2022-07-29T12:06:13.385Z,0.82
2022-07-29T12:08:44.453Z,1.00
2022-07-29T12:11:21.709Z,0.90
2022-07-29T12:13:52.635Z,0.80
2022-07-29T12:16:29.160Z,0.80
2022-07-29T12:18:59.803Z,0.95
2022-07-29T12:21:29.316Z,0.77
2022-07-29T12:24:07.728Z,0.88
2022-07-29T12:26:38.248Z,0.90
2022-07-29T12:29:20.441Z,0.90
2022-07-29T12:32:02.354Z,0.70
2022-07-29T12:34:31.358Z,0.73
2022-07-29T12:36:59.557Z,0.80
2022-07-29T12:39:29.143Z,1.00
2022-07-29T12:42:03.860Z,1.00
2022-07-29T12:44:48.535Z,0.90
2022-07-29T12:47:17.132Z,0.93
2022-07-29T12:49:45.133Z,0.90
2022-07-29T12:52:26.635Z,0.80
2022-07-29T12:54:54.782Z,1.00
2022-07-29T12:57:23.148Z,0.70
2022-07-29T13:00:04.985Z,0.90
2022-07-29T13:02:33.220Z,1.40
2022-07-29T13:05:02.892Z,0.80
2022-07-29T13:07:54.634Z,0.88
2022-07-29T13:10:23.902Z,0.73
2022-07-29T13:13:07.560Z,1.17
2022-07-29T13:15:37.683Z,1.10
2022-07-29T13:18:07.395Z,0.90
2022-07-29T13:20:36.343Z,0.90
2022-07-29T13:23:04.319Z,1.20
2022-07-29T13:25:34.363Z,0.75
2022-07-29T13:28:02.387Z,0.82
2022-07-29T13:30:30.489Z,1.13
2022-07-29T13:33:00.160Z,0.70
2022-07-29T13:35:30.756Z,0.85
2022-07-29T13:37:58.965Z,0.70
2022-07-29T13:40:27.336Z,1.00
2022-07-29T13:42:55.372Z,0.90
2022-07-29T13:45:23.516Z,0.88
2022-07-29T13:47:51.525Z,0.90
2022-07-29T13:50:21.029Z,0.85
2022-07-29T13:52:51.287Z,1.00
2022-07-29T13:55:19.536Z,1.25
2022-07-29T13:57:48.553Z,0.90
2022-07-29T14:00:17.373Z,0.98
2022-07-29T14:02:45.361Z,0.95
2022-07-29T14:05:13.698Z,0.93
2022-07-29T14:07:43.058Z,0.90
2022-07-29T14:10:11.591Z,0.93
2022-07-29T14:12:40.358Z,0.82
2022-07-29T14:15:09.204Z,0.70
2022-07-29T14:17:37.265Z,0.90
2022-07-29T14:20:06.486Z,1.08
2022-07-29T14:22:37.801Z,0.90
2022-07-29T14:25:14.747Z,1.00
2022-07-29T14:27:43.835Z,0.82
2022-07-29T14:30:13.162Z,1.00
2022-07-29T14:32:41.303Z,1.00
2022-07-29T14:35:10.151Z,1.00
2022-07-29T14:37:40.345Z,1.00
2022-07-29T14:40:11.574Z,1.00
2022-07-29T14:42:40.006Z,2.53
2022-07-29T14:45:09.727Z,1.60
2022-07-29T14:47:38.181Z,1.13
2022-07-29T14:50:07.639Z,3.33
2022-07-29T14:52:36.209Z,0.90
2022-07-29T14:55:05.872Z,2.05
2022-07-29T14:57:49.112Z,1.33
2022-07-29T15:00:17.602Z,1.17
2022-07-29T15:03:01.278Z,0.90
2022-07-29T15:05:30.736Z,1.02
2022-07-29T15:07:59.769Z,1.10
2022-07-29T15:10:28.242Z,1.00
2022-07-29T15:12:58.014Z,0.85
2022-07-29T15:15:26.405Z,0.93
2022-07-29T15:17:54.466Z,0.90
2022-07-29T15:20:22.735Z,1.08
2022-07-29T15:22:50.728Z,0.93
2022-07-29T15:25:18.896Z,0.90
2022-07-29T15:27:52.831Z,0.85
2022-07-29T15:30:27.863Z,1.00
2022-07-29T15:33:01.269Z,1.00
2022-07-29T15:35:29.277Z,1.00
2022-07-29T15:37:57.334Z,0.90
2022-07-29T15:40:25.445Z,0.82
2022-07-29T15:42:53.526Z,0.90
2022-07-29T15:45:23.011Z,0.90
2022-07-29T15:47:51.121Z,0.85
2022-07-29T15:50:20.127Z,0.90
2022-07-29T15:52:48.200Z,0.93
2022-07-29T15:55:16.619Z,1.00
2022-07-29T15:57:44.731Z,0.90
2022-07-29T16:00:13.767Z,1.08
2022-07-29T16:02:43.207Z,0.95
2022-07-29T16:05:11.535Z,0.80
2022-07-29T16:07:39.631Z,0.80
2022-07-29T16:10:08.204Z,0.90
2022-07-29T16:12:36.246Z,0.80
2022-07-29T16:15:09.279Z,1.00
2022-07-29T16:17:38.174Z,0.93
2022-07-29T16:20:09.004Z,0.80
2022-07-29T16:22:38.862Z,1.08
2022-07-29T16:25:07.863Z,0.90
2022-07-29T16:27:38.008Z,1.05
2022-07-29T16:30:09.770Z,1.10
2022-07-29T16:32:37.985Z,1.20
2022-07-29T16:35:08.599Z,1.00
2022-07-29T16:37:37.335Z,1.17
2022-07-29T16:40:07.550Z,1.20
2022-07-29T16:42:47.895Z,1.00
2022-07-29T16:45:18.127Z,1.10
2022-07-29T16:47:49.549Z,1.20
2022-07-29T16:50:19.361Z,1.00
2022-07-29T16:52:47.455Z,1.20
2022-07-29T16:55:15.571Z,1.40
2022-07-29T16:57:43.911Z,1.00
2022-07-29T17:00:13.476Z,1.10
2022-07-29T17:02:41.573Z,1.13
2022-07-29T17:05:10.653Z,1.02
2022-07-29T17:07:40.518Z,1.05
2022-07-29T17:10:09.665Z,1.20
2022-07-29T17:12:38.339Z,1.30
2022-07-29T17:15:08.880Z,0.90
2022-07-29T17:17:38.635Z,0.98
2022-07-29T17:20:09.168Z,1.05
2022-07-29T17:22:40.282Z,1.20
2022-07-29T17:25:10.040Z,1.15
2022-07-29T17:27:38.147Z,1.38
2022-07-29T17:30:07.418Z,1.20
2022-07-29T17:32:38.570Z,1.10
2022-07-29T17:35:29.624Z,1.10
2022-07-29T17:37:59.029Z,1.00
2022-07-29T17:40:27.023Z,0.88
2022-07-29T17:42:55.143Z,0.90
2022-07-29T17:45:23.160Z,0.90
2022-07-29T17:47:51.232Z,1.00
2022-07-29T17:50:19.244Z,1.23
2022-07-29T17:52:47.282Z,1.00
2022-07-29T17:55:16.603Z,1.20
2022-07-29T17:57:44.710Z,1.10
2022-07-29T18:00:13.566Z,1.15
2022-07-29T18:02:41.738Z,1.45
2022-07-29T18:05:10.110Z,1.15
2022-07-29T18:07:38.182Z,1.60
2022-07-29T18:10:07.135Z,1.13
2022-07-29T18:12:36.625Z,1.45
2022-07-29T18:15:05.364Z,1.48
2022-07-29T18:17:46.010Z,1.35
2022-07-29T18:20:21.596Z,1.45
2022-07-29T18:22:49.874Z,1.50
2022-07-29T18:25:17.987Z,1.30
2022-07-29T18:27:47.497Z,1.20
2022-07-29T18:30:16.002Z,1.40
2022-07-29T18:32:59.205Z,1.23
2022-07-29T18:35:32.754Z,1.40
2022-07-29T18:38:02.950Z,1.10
2022-07-29T18:40:31.877Z,1.33
2022-07-29T18:43:01.399Z,1.33
2022-07-29T18:45:29.482Z,1.77
2022-07-29T18:48:00.832Z,1.40
2022-07-29T18:50:29.978Z,1.65
2022-07-29T18:53:01.153Z,1.50
2022-07-29T18:55:29.217Z,1.38
2022-07-29T18:57:57.621Z,1.50
2022-07-29T19:00:28.390Z,1.50
2022-07-29T19:02:57.211Z,1.60
2022-07-29T19:05:25.944Z,1.50
2022-07-29T19:07:54.857Z,1.50
2022-07-29T19:10:23.094Z,1.27
2022-07-29T19:12:51.209Z,1.23
2022-07-29T19:15:19.882Z,1.30
2022-07-29T19:17:50.053Z,1.60
2022-07-29T19:20:18.165Z,1.30
2022-07-29T19:22:46.512Z,1.20
2022-07-29T19:25:15.100Z,1.50
2022-07-29T19:27:43.365Z,1.20
2022-07-29T19:30:12.007Z,1.58
2022-07-29T19:32:40.059Z,1.50
2022-07-29T19:35:27.297Z,1.42
2022-07-29T19:37:57.280Z,1.88
2022-07-29T19:40:26.027Z,1.50
2022-07-29T19:42:54.739Z,1.52
2022-07-29T19:45:23.633Z,1.30
2022-07-29T19:47:51.847Z,1.40
2022-07-29T19:50:21.370Z,1.52
2022-07-29T19:52:49.591Z,1.30
2022-07-29T19:55:18.745Z,1.30
2022-07-29T19:57:47.691Z,1.40
2022-07-29T20:00:17.230Z,1.85
2022-07-29T20:02:49.167Z,1.85
2022-07-29T20:05:17.335Z,1.52
2022-07-29T20:07:47.848Z,1.30
2022-07-29T20:10:16.408Z,1.35
2022-07-29T20:12:44.468Z,1.50
2022-07-29T20:15:16.558Z,1.20
2022-07-29T20:17:44.953Z,1.70
2022-07-29T20:20:13.402Z,1.40
2022-07-29T20:22:41.529Z,1.85
2022-07-29T20:25:12.036Z,1.33
2022-07-29T20:27:40.572Z,1.60
2022-07-29T20:30:09.635Z,1.67
2022-07-29T20:32:39.283Z,1.50
2022-07-29T20:35:08.379Z,1.48
2022-07-29T20:37:52.417Z,1.45
2022-07-29T20:40:25.967Z,1.40
2022-07-29T20:42:54.201Z,1.50
2022-07-29T20:45:23.523Z,1.17
2022-07-29T20:47:52.147Z,1.30
2022-07-29T20:50:24.060Z,1.45
2022-07-29T20:52:52.977Z,1.52
2022-07-29T20:55:21.071Z,1.30
2022-07-29T20:57:50.532Z,1.80
2022-07-29T21:00:18.898Z,1.45
2022-07-29T21:02:47.465Z,1.20
2022-07-29T21:05:15.645Z,1.70
2022-07-29T21:07:44.139Z,1.30
2022-07-29T21:10:12.391Z,1.60
2022-07-29T21:12:41.894Z,1.48
2022-07-29T21:15:13.664Z,1.45
2022-07-29T21:17:46.879Z,2.10
2022-07-29T21:20:15.877Z,1.65
2022-07-29T21:22:44.381Z,1.52
2022-07-29T21:25:13.287Z,1.38
2022-07-29T21:27:59.195Z,1.27
2022-07-29T21:30:28.665Z,1.30
2022-07-29T21:32:56.887Z,1.10
2022-07-29T21:36:01.569Z,2.22
2022-07-29T21:38:16.304Z,1.75
2022-07-29T21:40:44.623Z,1.30
2022-07-29T21:43:13.045Z,1.25
2022-07-29T21:45:43.816Z,1.65
2022-07-29T21:48:11.933Z,1.33
2022-07-29T21:50:40.105Z,1.50
2022-07-29T21:53:08.193Z,1.73
2022-07-29T21:55:39.325Z,1.30
2022-07-29T21:58:07.742Z,1.70
2022-07-29T22:00:36.110Z,1.30
2022-07-29T22:03:06.296Z,1.92
2022-07-29T22:05:34.671Z,1.40
2022-07-29T22:08:03.314Z,1.30
2022-07-29T22:10:32.243Z,1.30
2022-07-29T22:13:01.630Z,1.42
2022-07-29T22:15:30.310Z,1.30
2022-07-29T22:17:58.608Z,1.30
2022-07-29T22:20:28.148Z,1.40
2022-07-29T22:22:56.302Z,1.25
2022-07-29T22:25:24.488Z,1.30
2022-07-29T22:27:52.541Z,1.25
2022-07-29T22:30:20.655Z,1.30
2022-07-29T22:32:49.704Z,1.45
2022-07-29T22:35:18.039Z,1.40
2022-07-29T22:37:47.349Z,1.13
2022-07-29T22:40:15.504Z,1.45
2022-07-29T22:42:43.550Z,1.15
2022-07-29T22:45:12.009Z,1.48
2022-07-29T22:47:47.991Z,1.25
2022-07-29T22:50:17.126Z,1.30
2022-07-29T22:52:45.264Z,1.45
2022-07-29T22:55:14.732Z,1.33
2022-07-29T22:57:42.841Z,1.30
2022-07-29T23:00:12.619Z,1.50
2022-07-29T23:02:41.589Z,1.58
2022-07-29T23:05:10.543Z,1.88
2022-07-29T23:07:38.805Z,1.42
2022-07-29T23:10:07.736Z,1.70
2022-07-29T23:12:37.254Z,1.60
2022-07-29T23:15:06.226Z,1.70
2022-07-29T23:17:36.266Z,1.60
2022-07-29T23:20:06.990Z,1.38
2022-07-29T23:22:35.251Z,1.60
2022-07-29T23:25:03.336Z,1.50
2022-07-29T23:27:31.404Z,1.30
2022-07-29T23:30:00.818Z,1.30
2022-07-29T23:32:28.927Z,1.50
2022-07-29T23:34:56.963Z,1.58
2022-07-29T23:37:26.856Z,1.40
2022-07-29T23:39:55.360Z,1.60
2022-07-29T23:42:23.891Z,1.20
2022-07-29T23:44:52.309Z,1.20
2022-07-29T23:47:21.753Z,1.23
2022-07-29T23:49:50.192Z,1.10
2022-07-29T23:52:19.888Z,1.40
2022-07-29T23:54:48.071Z,1.55
2022-07-29T23:57:16.165Z,1.55
2022-07-29T23:59:44.169Z,1.33
